Time;durP1;ratioP1;P1;durP2;ratioP2;P2;SDS_P1;SDS_P2;PMS_P1;PMS_P2;Temp;Humidity;BMP_temperature;BMP_pressure;BME280_temperature;BME280_humidity;BME280_pressure;Samples;Min_cycle;Max_cycle;Signal;HPM_P1;HPM_P2
2023/03/27 05:52:57;;;;;;;4.03;1.00;;;;;;;;;;10583491;27;20399;-82
2023/03/27 05:58:01;;;;;;;3.17;1.23;;;;;;;;;;10584570;28;20519;-84
2023/03/27 06:03:03;;;;;;;4.78;1.42;;;;;;;;;;10585588;22;20040;-80
2023/03/27 06:08:04;;;;;;;5.63;1.15;;;;;;;;;;10528274;28;20088;-81
2023/03/27 06:13:07;;;;;;;3.15;0.95;;;;;;;;;;10560491;28;20493;-80
2023/03/27 06:18:09;;;;;;;4.40;1.40;;;;;;;;;;10616934;28;20485;-81
2023/03/27 06:23:10;;;;;;;4.13;1.50;;;;;;;;;;10593861;28;20028;-81
2023/03/27 06:28:12;;;;;;;1.75;1.00;;;;;;;;;;10578602;28;20023;-81
2023/03/27 06:33:14;;;;;;;5.15;1.38;;;;;;;;;;10593865;28;20031;-81
2023/03/27 06:38:16;;;;;;;2.70;1.13;;;;;;;;;;10576176;28;20027;-81
2023/03/27 06:43:21;;;;;;;10.02;7.03;;;;;;;;;;10571787;28;20426;-80
2023/03/27 06:48:23;;;;;;;4.10;1.80;;;;;;;;;;10568739;28;20024;-81
2023/03/27 06:53:24;;;;;;;3.08;1.40;;;;;;;;;;10589315;28;20026;-80
2023/03/27 06:58:26;;;;;;;12.93;9.52;;;;;;;;;;10569637;28;20020;-80
2023/03/27 07:03:27;;;;;;;3.22;1.30;;;;;;;;;;10569891;28;20468;-82
2023/03/27 07:08:28;;;;;;;2.78;1.20;;;;;;;;;;10554212;28;20081;-82
2023/03/27 07:13:29;;;;;;;3.67;1.40;;;;;;;;;;10548809;28;20031;-82
2023/03/27 07:18:30;;;;;;;3.45;1.10;;;;;;;;;;10560300;28;20043;-81
2023/03/27 07:23:31;;;;;;;3.80;1.15;;;;;;;;;;10552816;28;20031;-82
2023/03/27 07:28:32;;;;;;;;;;;;;;;;;;10540062;28;20032;-83
2023/03/27 07:33:33;;;;;;;4.30;1.67;;;;;;;;;;10547795;28;20353;-83
2023/03/27 07:38:34;;;;;;;;;;;;;;;;;;10531533;28;20135;-79
2023/03/27 07:43:35;;;;;;;4.25;1.20;;;;;;;;;;10556802;28;19904;-78
2023/03/27 07:48:37;;;;;;;3.45;1.15;;;;;;;;;;10540044;28;20028;-80
2023/03/27 07:53:38;;;;;;;4.25;1.02;;;;;;;;;;10528758;28;20556;-79
2023/03/27 07:58:39;;;;;;;3.20;1.00;;;;;;;;;;10547799;28;20107;-80
2023/03/27 08:03:40;;;;;;;2.38;1.10;;;;;;;;;;10554408;28;20027;-80
2023/03/27 08:08:41;;;;;;;;;;;;;;;;;;10543593;28;20073;-79
2023/03/27 08:13:42;;;;;;;3.83;1.20;;;;;;;;;;10560539;28;19926;-79
2023/03/27 08:18:45;;;;;;;2.92;0.90;;;;;;;;;;10545988;28;20044;-79
2023/03/27 08:23:46;;;;;;;3.92;0.93;;;;;;;;;;10540752;28;20028;-77
2023/03/27 08:28:47;;;;;;;3.05;1.30;;;;;;;;;;10543371;28;20028;-79
2023/03/27 08:33:48;;;;;;;;;;;;;;;;;;10542120;28;20024;-79
2023/03/27 08:38:50;;;;;;;2.83;1.50;;;;;;;;;;10558408;28;19908;-79
2023/03/27 08:43:52;;;;;;;4.70;1.85;;;;;;;;;;10542345;28;20032;-80
2023/03/27 08:48:55;;;;;;;4.65;1.77;;;;;;;;;;10561241;28;20030;-79
2023/03/27 08:54:02;;;;;;;3.40;2.00;;;;;;;;;;10546978;28;20115;-79
2023/03/27 08:59:04;;;;;;;3.03;1.60;;;;;;;;;;10566557;28;20023;-79
2023/03/27 09:04:14;;;;;;;5.65;2.53;;;;;;;;;;10540613;28;20478;-79
2023/03/27 09:09:34;;;;;;;3.47;1.40;;;;;;;;;;10539339;28;20024;-80
2023/03/27 09:14:37;;;;;;;2.97;1.70;;;;;;;;;;10538674;28;20032;-79
2023/03/27 09:19:50;;;;;;;7.40;1.58;;;;;;;;;;10537494;28;20035;-78
2023/03/27 09:24:55;;;;;;;3.65;1.27;;;;;;;;;;10533719;28;20024;-79
2023/03/27 09:29:58;;;;;;;3.50;1.35;;;;;;;;;;10528963;28;20024;-79
2023/03/27 09:34:59;;;;;;;2.78;1.10;;;;;;;;;;10527668;28;20020;-79
2023/03/27 09:40:01;;;;;;;2.40;0.88;;;;;;;;;;10547320;28;20051;-81
2023/03/27 09:45:01;;;;;;;;;;;;;;;;;;10528032;28;20017;-79
2023/03/27 09:50:26;;;;;;;2.28;0.90;;;;;;;;;;10543942;28;19908;-80
2023/03/27 09:55:29;;;;;;;4.18;1.20;;;;;;;;;;10518681;28;20399;-80
2023/03/27 10:00:32;;;;;;;3.45;1.20;;;;;;;;;;10527513;28;20024;-78
2023/03/27 10:05:34;;;;;;;4.10;1.00;;;;;;;;;;10525875;28;20088;-79
2023/03/27 10:10:40;;;;;;;4.78;1.30;;;;;;;;;;10526856;28;20089;-78
2023/03/27 10:15:42;;;;;;;3.25;0.95;;;;;;;;;;10527728;28;20028;-78
2023/03/27 10:20:49;;;;;;;3.33;1.20;;;;;;;;;;10527598;28;20028;-79
2023/03/27 10:25:51;;;;;;;2.70;0.88;;;;;;;;;;10535299;28;20393;-79
2023/03/27 10:31:00;;;;;;;2.10;0.85;;;;;;;;;;10547915;28;20050;-79
2023/03/27 10:36:02;;;;;;;1.83;0.82;;;;;;;;;;10532703;28;20378;-79
2023/03/27 10:41:06;;;;;;;3.03;0.90;;;;;;;;;;10537281;28;20028;-80
2023/03/27 10:46:10;;;;;;;4.00;0.93;;;;;;;;;;10554768;28;20104;-79
2023/03/27 10:51:23;;;;;;;5.72;0.90;;;;;;;;;;10538119;28;20119;-79
2023/03/27 10:56:31;;;;;;;2.80;1.02;;;;;;;;;;10558123;28;20125;-81
2023/03/27 11:01:33;;;;;;;2.92;1.10;;;;;;;;;;10536792;28;20474;-79
2023/03/27 11:06:37;;;;;;;2.05;0.90;;;;;;;;;;10537929;28;20385;-78
2023/03/27 11:11:40;;;;;;;3.17;1.20;;;;;;;;;;10555476;28;20024;-79
2023/03/27 11:16:43;;;;;;;3.97;0.80;;;;;;;;;;10542691;28;20032;-80
2023/03/27 11:21:46;;;;;;;1.98;0.82;;;;;;;;;;10537742;28;20024;-79
2023/03/27 11:27:06;;;;;;;2.10;0.70;;;;;;;;;;10534538;28;20138;-79
2023/03/27 11:32:16;;;;;;;2.10;1.02;;;;;;;;;;10535108;28;20027;-80
2023/03/27 11:37:36;;;;;;;1.15;0.70;;;;;;;;;;10534498;28;20085;-79
2023/03/27 11:42:41;;;;;;;1.30;0.60;;;;;;;;;;10535622;28;20123;-78
2023/03/27 11:47:48;;;;;;;2.55;1.00;;;;;;;;;;10535422;28;20035;-78
2023/03/27 11:52:53;;;;;;;1.50;0.63;;;;;;;;;;10538672;28;20032;-78
2023/03/27 11:58:13;;;;;;;2.67;0.80;;;;;;;;;;10542497;28;20032;-78
2023/03/27 12:03:35;;;;;;;3.13;0.80;;;;;;;;;;10598152;22;20077;-81
2023/03/27 12:08:55;;;;;;;1.33;0.68;;;;;;;;;;10615232;27;20038;-81
2023/03/27 12:13:57;;;;;;;3.25;0.88;;;;;;;;;;10617317;27;20123;-81
2023/03/27 12:18:58;;;;;;;4.72;2.75;;;;;;;;;;10594101;28;20055;-83
2023/03/27 12:23:59;;;;;;;;;;;;;;;;;;10583557;28;20028;-81
2023/03/27 12:29:09;;;;;;;2.38;0.80;;;;;;;;;;10585055;28;19999;-81
2023/03/27 12:34:13;;;;;;;1.70;0.70;;;;;;;;;;10577209;28;20031;-82
2023/03/27 12:39:18;;;;;;;2.85;0.60;;;;;;;;;;10574729;28;20024;-81
2023/03/27 12:44:27;;;;;;;1.00;0.47;;;;;;;;;;10576745;28;20020;-82
2023/03/27 12:49:59;;;;;;;1.25;0.50;;;;;;;;;;10576602;28;20028;-81
2023/03/27 12:55:17;;;;;;;2.25;0.70;;;;;;;;;;10595140;28;20107;-82
2023/03/27 13:00:24;;;;;;;3.30;0.63;;;;;;;;;;10575929;28;20035;-82
2023/03/27 13:05:32;;;;;;;1.17;0.60;;;;;;;;;;10575730;28;20034;-85
2023/03/27 13:10:54;;;;;;;1.20;0.57;;;;;;;;;;10574024;28;20023;-83
2023/03/27 13:16:01;;;;;;;1.45;0.70;;;;;;;;;;10543181;28;20047;-83
2023/03/27 13:21:17;;;;;;;2.08;0.60;;;;;;;;;;10574939;28;20031;-81
2023/03/27 13:26:27;;;;;;;1.65;0.60;;;;;;;;;;10582404;28;20016;-82
2023/03/27 13:32:09;;;;;;;2.67;1.15;;;;;;;;;;10579119;28;20023;-83
2023/03/27 13:37:10;;;;;;;1.90;0.50;;;;;;;;;;10525665;28;20120;-82
2023/03/27 13:42:12;;;;;;;2.10;0.50;;;;;;;;;;10577395;28;20020;-82
2023/03/27 13:47:28;;;;;;;2.78;0.73;;;;;;;;;;10595095;28;20030;-82
2023/03/27 13:52:57;;;;;;;3.30;0.90;;;;;;;;;;10576899;28;20027;-83
2023/03/27 13:57:58;;;;;;;1.85;0.90;;;;;;;;;;10580587;28;20026;-83
2023/03/27 14:03:20;;;;;;;3.53;1.20;;;;;;;;;;10577560;28;20035;-84
2023/03/27 14:08:34;;;;;;;1.27;0.73;;;;;;;;;;10576857;28;20039;-84
2023/03/27 14:14:10;;;;;;;2.42;0.82;;;;;;;;;;10583068;28;20519;-83
2023/03/27 14:19:48;;;;;;;1.48;0.57;;;;;;;;;;10514679;28;20103;-83
2023/03/27 14:25:04;;;;;;;4.90;1.05;;;;;;;;;;10606905;28;20024;-82
2023/03/27 14:30:14;;;;;;;2.03;0.73;;;;;;;;;;10587254;28;20031;-82
2023/03/27 14:35:29;;;;;;;2.58;1.23;;;;;;;;;;10585151;28;20366;-82
2023/03/27 14:40:31;;;;;;;1.42;0.63;;;;;;;;;;10602100;28;20118;-84
2023/03/27 14:45:34;;;;;;;2.33;0.70;;;;;;;;;;10584897;28;20111;-81
2023/03/27 14:50:37;;;;;;;2.70;0.93;;;;;;;;;;10593955;27;20027;-80
2023/03/27 14:55:39;;;;;;;2.58;0.90;;;;;;;;;;10588364;28;20035;-83
2023/03/27 15:00:40;;;;;;;1.15;0.50;;;;;;;;;;10585705;28;20040;-82
2023/03/27 15:06:01;;;;;;;2.33;0.70;;;;;;;;;;10603749;28;20028;-82
2023/03/27 15:11:03;;;;;;;2.92;1.05;;;;;;;;;;10586820;28;20503;-82
2023/03/27 15:16:05;;;;;;;1.58;0.50;;;;;;;;;;10585578;28;20042;-83
2023/03/27 15:21:15;;;;;;;0.95;0.50;;;;;;;;;;10586878;28;20032;-83
2023/03/27 15:26:30;;;;;;;2.58;1.10;;;;;;;;;;10605148;28;20083;-83
2023/03/27 15:31:31;;;;;;;1.85;0.60;;;;;;;;;;10587668;28;20057;-83
2023/03/27 15:36:34;;;;;;;2.17;0.80;;;;;;;;;;10601623;28;20110;-82
2023/03/27 15:41:37;;;;;;;2.25;0.77;;;;;;;;;;10583763;28;20122;-82
2023/03/27 15:46:45;;;;;;;3.38;1.60;;;;;;;;;;10583197;28;20027;-82
2023/03/27 15:51:47;;;;;;;2.58;0.82;;;;;;;;;;10587495;28;20020;-82
2023/03/27 15:56:49;;;;;;;1.88;0.68;;;;;;;;;;10631715;27;20075;-82
2023/03/27 16:01:54;;;;;;;3.15;0.80;;;;;;;;;;10601179;27;20035;-81
2023/03/27 16:07:15;;;;;;;1.75;0.70;;;;;;;;;;10601351;27;20130;-83
2023/03/27 16:12:18;;;;;;;4.57;1.23;;;;;;;;;;10578115;28;20039;-83
2023/03/27 16:17:55;;;;;;;2.25;0.47;;;;;;;;;;10575059;28;20051;-86
2023/03/27 16:22:56;;;;;;;2.22;0.77;;;;;;;;;;10583041;28;20040;-83
2023/03/27 16:28:00;;;;;;;;;;;;;;;;;;10590687;27;20024;-83
2023/03/27 16:33:02;;;;;;;2.10;0.82;;;;;;;;;;10583225;28;19904;-83
2023/03/27 16:38:03;;;;;;;2.63;0.80;;;;;;;;;;10583697;28;20163;-83
2023/03/27 16:43:04;;;;;;;;;;;;;;;;;;10583755;28;20031;-83
2023/03/27 16:48:06;;;;;;;2.45;0.80;;;;;;;;;;10584165;28;19911;-81
2023/03/27 16:53:07;;;;;;;4.50;0.82;;;;;;;;;;10586369;28;20066;-82
2023/03/27 16:58:08;;;;;;;2.17;0.80;;;;;;;;;;10606940;28;20024;-81
2023/03/27 17:03:10;;;;;;;2.80;0.90;;;;;;;;;;10586203;28;20400;-81
2023/03/27 17:08:12;;;;;;;3.88;0.77;;;;;;;;;;10586393;28;20435;-81
2023/03/27 17:13:13;;;;;;;2.83;1.05;;;;;;;;;;10585895;28;20430;-81
2023/03/27 17:18:14;;;;;;;;;;;;;;;;;;10570383;28;20103;-82
2023/03/27 17:23:15;;;;;;;3.03;1.00;;;;;;;;;;10586438;28;19908;-82
2023/03/27 17:28:16;;;;;;;2.28;0.88;;;;;;;;;;10604735;28;20026;-81
2023/03/27 17:33:17;;;;;;;3.72;1.50;;;;;;;;;;10586132;28;20092;-82
2023/03/27 17:38:21;;;;;;;1.65;0.85;;;;;;;;;;10586083;28;20027;-81
2023/03/27 17:43:22;;;;;;;4.40;1.40;;;;;;;;;;10587888;28;20024;-81
2023/03/27 17:48:24;;;;;;;1.95;0.70;;;;;;;;;;10586731;28;20103;-82
2023/03/27 17:53:28;;;;;;;1.30;0.70;;;;;;;;;;10605911;28;20111;-82
2023/03/27 17:58:30;;;;;;;1.70;0.80;;;;;;;;;;10586208;28;20030;-82
2023/03/27 18:03:31;;;;;;;2.92;1.30;;;;;;;;;;10607930;22;20051;-79
2023/03/27 18:08:32;;;;;;;3.88;0.93;;;;;;;;;;10586927;28;20473;-80
2023/03/27 18:13:34;;;;;;;2.28;0.95;;;;;;;;;;10587793;28;20023;-79
2023/03/27 18:18:35;;;;;;;;;;;;;;;;;;10609531;28;20026;-80
2023/03/27 18:23:37;;;;;;;3.30;1.00;;;;;;;;;;10592456;28;19927;-79
2023/03/27 18:28:38;;;;;;;3.05;1.13;;;;;;;;;;10593701;28;20032;-80
2023/03/27 18:33:39;;;;;;;2.13;0.82;;;;;;;;;;10596485;28;20063;-79
2023/03/27 18:38:40;;;;;;;;;;;;;;;;;;10597328;28;20042;-79
2023/03/27 18:43:41;;;;;;;1.88;1.00;;;;;;;;;;10598814;28;19925;-78
2023/03/27 18:48:43;;;;;;;5.25;1.50;;;;;;;;;;10605425;28;20039;-79
2023/03/27 18:53:44;;;;;;;3.08;1.35;;;;;;;;;;10597650;28;20036;-78
2023/03/27 18:58:46;;;;;;;3.40;1.08;;;;;;;;;;10593874;28;20020;-80
2023/03/27 19:03:47;;;;;;;2.95;1.10;;;;;;;;;;10598455;28;20024;-79
2023/03/27 19:08:49;;;;;;;2.67;1.10;;;;;;;;;;10600022;28;20035;-80
2023/03/27 19:13:50;;;;;;;2.75;1.08;;;;;;;;;;10598927;28;20034;-80
